sensor_id;sensor_type;location;lat;lon;timestamp;temperature;humidity
25923;DHT22;13725;51.170;4.442;2023-07-24T00:00:21;18.60;99.90
25923;DHT22;13725;51.170;4.442;2023-07-24T00:02:47;18.60;99.90
25923;DHT22;13725;51.170;4.442;2023-07-24T00:05:13;18.70;99.90
25923;DHT22;13725;51.170;4.442;2023-07-24T00:07:39;18.70;99.90
25923;DHT22;13725;51.170;4.442;2023-07-24T00:10:05;18.70;99.90
25923;DHT22;13725;51.170;4.442;2023-07-24T00:12:30;18.70;99.90
25923;DHT22;13725;51.170;4.442;2023-07-24T00:14:56;18.70;99.90
25923;DHT22;13725;51.170;4.442;2023-07-24T00:17:22;18.70;99.90
25923;DHT22;13725;51.170;4.442;2023-07-24T00:19:48;18.70;99.90
25923;DHT22;13725;51.170;4.442;2023-07-24T00:22:14;18.60;99.90
25923;DHT22;13725;51.170;4.442;2023-07-24T00:24:41;18.60;99.90
25923;DHT22;13725;51.170;4.442;2023-07-24T00:27:07;18.70;99.90
25923;DHT22;13725;51.170;4.442;2023-07-24T00:29:32;18.60;99.90
25923;DHT22;13725;51.170;4.442;2023-07-24T00:31:58;18.60;99.90
25923;DHT22;13725;51.170;4.442;2023-07-24T00:34:24;18.70;99.90
25923;DHT22;13725;51.170;4.442;2023-07-24T00:36:50;18.60;99.90
25923;DHT22;13725;51.170;4.442;2023-07-24T00:39:15;18.60;99.90
25923;DHT22;13725;51.170;4.442;2023-07-24T00:41:43;18.50;99.90
25923;DHT22;13725;51.170;4.442;2023-07-24T00:44:09;18.50;99.90
25923;DHT22;13725;51.170;4.442;2023-07-24T00:46:35;18.40;99.90
25923;DHT22;13725;51.170;4.442;2023-07-24T00:49:02;18.30;99.90
25923;DHT22;13725;51.170;4.442;2023-07-24T00:51:33;18.40;99.90
25923;DHT22;13725;51.170;4.442;2023-07-24T00:54:01;18.30;99.90
25923;DHT22;13725;51.170;4.442;2023-07-24T00:56:29;18.30;99.90
25923;DHT22;13725;51.170;4.442;2023-07-24T00:58:56;18.30;99.90
25923;DHT22;13725;51.170;4.442;2023-07-24T01:01:22;18.30;99.90
25923;DHT22;13725;51.170;4.442;2023-07-24T01:03:50;18.40;99.90
25923;DHT22;13725;51.170;4.442;2023-07-24T01:06:16;18.40;99.90
25923;DHT22;13725;51.170;4.442;2023-07-24T01:08:42;18.40;99.90
25923;DHT22;13725;51.170;4.442;2023-07-24T01:11:15;18.40;99.90
25923;DHT22;13725;51.170;4.442;2023-07-24T01:13:47;18.40;99.90
25923;DHT22;13725;51.170;4.442;2023-07-24T01:16:19;18.50;99.90
25923;DHT22;13725;51.170;4.442;2023-07-24T01:18:48;18.50;99.90
25923;DHT22;13725;51.170;4.442;2023-07-24T01:21:20;18.50;99.90
25923;DHT22;13725;51.170;4.442;2023-07-24T01:24:19;18.60;99.90
25923;DHT22;13725;51.170;4.442;2023-07-24T01:26:49;18.50;99.90
25923;DHT22;13725;51.170;4.442;2023-07-24T01:29:15;18.50;99.90
25923;DHT22;13725;51.170;4.442;2023-07-24T01:31:41;18.50;99.90
25923;DHT22;13725;51.170;4.442;2023-07-24T01:34:06;18.50;99.90
25923;DHT22;13725;51.170;4.442;2023-07-24T01:36:32;18.60;99.90
25923;DHT22;13725;51.170;4.442;2023-07-24T01:38:58;18.60;99.90
25923;DHT22;13725;51.170;4.442;2023-07-24T01:41:25;18.60;99.90
25923;DHT22;13725;51.170;4.442;2023-07-24T01:43:51;18.60;99.90
25923;DHT22;13725;51.170;4.442;2023-07-24T01:46:17;18.60;99.90
25923;DHT22;13725;51.170;4.442;2023-07-24T01:48:43;18.60;99.90
25923;DHT22;13725;51.170;4.442;2023-07-24T01:51:09;18.60;99.90
25923;DHT22;13725;51.170;4.442;2023-07-24T01:53:34;18.60;99.90
25923;DHT22;13725;51.170;4.442;2023-07-24T01:56:00;18.60;99.90
25923;DHT22;13725;51.170;4.442;2023-07-24T01:58:26;18.60;99.90
25923;DHT22;13725;51.170;4.442;2023-07-24T02:00:55;18.60;99.90
25923;DHT22;13725;51.170;4.442;2023-07-24T02:03:21;18.60;99.90
25923;DHT22;13725;51.170;4.442;2023-07-24T02:05:50;18.50;99.90
25923;DHT22;13725;51.170;4.442;2023-07-24T02:08:17;18.40;99.90
25923;DHT22;13725;51.170;4.442;2023-07-24T02:10:43;18.40;99.90
25923;DHT22;13725;51.170;4.442;2023-07-24T02:13:08;18.40;99.90
25923;DHT22;13725;51.170;4.442;2023-07-24T02:15:35;18.40;99.90
25923;DHT22;13725;51.170;4.442;2023-07-24T02:18:01;18.40;99.90
25923;DHT22;13725;51.170;4.442;2023-07-24T02:20:27;18.40;99.90
25923;DHT22;13725;51.170;4.442;2023-07-24T02:22:52;18.30;99.90
25923;DHT22;13725;51.170;4.442;2023-07-24T02:25:18;18.20;99.90
25923;DHT22;13725;51.170;4.442;2023-07-24T02:27:44;18.20;99.90
25923;DHT22;13725;51.170;4.442;2023-07-24T02:30:10;18.10;99.90
25923;DHT22;13725;51.170;4.442;2023-07-24T02:32:36;18.20;99.90
25923;DHT22;13725;51.170;4.442;2023-07-24T02:35:01;18.10;99.90
25923;DHT22;13725;51.170;4.442;2023-07-24T02:37:27;18.10;99.90
25923;DHT22;13725;51.170;4.442;2023-07-24T02:39:53;18.00;99.90
25923;DHT22;13725;51.170;4.442;2023-07-24T02:42:19;18.00;99.90
25923;DHT22;13725;51.170;4.442;2023-07-24T02:44:45;18.00;99.90
25923;DHT22;13725;51.170;4.442;2023-07-24T02:47:11;18.00;99.90
25923;DHT22;13725;51.170;4.442;2023-07-24T02:49:37;18.00;99.90
25923;DHT22;13725;51.170;4.442;2023-07-24T02:52:02;18.00;99.90
25923;DHT22;13725;51.170;4.442;2023-07-24T02:54:28;18.00;99.90
25923;DHT22;13725;51.170;4.442;2023-07-24T02:56:55;18.00;99.90
25923;DHT22;13725;51.170;4.442;2023-07-24T02:59:21;18.00;99.90
25923;DHT22;13725;51.170;4.442;2023-07-24T03:01:47;18.00;99.90
25923;DHT22;13725;51.170;4.442;2023-07-24T03:04:13;18.00;99.90
25923;DHT22;13725;51.170;4.442;2023-07-24T03:06:39;18.00;99.90
25923;DHT22;13725;51.170;4.442;2023-07-24T03:09:06;18.00;99.90
25923;DHT22;13725;51.170;4.442;2023-07-24T03:11:31;18.00;99.90
25923;DHT22;13725;51.170;4.442;2023-07-24T03:13:57;18.00;99.90
25923;DHT22;13725;51.170;4.442;2023-07-24T03:16:23;18.00;99.90
25923;DHT22;13725;51.170;4.442;2023-07-24T03:18:49;18.00;99.90
25923;DHT22;13725;51.170;4.442;2023-07-24T03:21:14;18.00;99.90
25923;DHT22;13725;51.170;4.442;2023-07-24T03:23:40;18.00;99.90
25923;DHT22;13725;51.170;4.442;2023-07-24T03:26:06;17.90;99.90
25923;DHT22;13725;51.170;4.442;2023-07-24T03:28:32;17.80;99.90
25923;DHT22;13725;51.170;4.442;2023-07-24T03:30:57;17.80;99.90
25923;DHT22;13725;51.170;4.442;2023-07-24T03:33:23;17.70;99.90
25923;DHT22;13725;51.170;4.442;2023-07-24T03:35:50;17.70;99.90
25923;DHT22;13725;51.170;4.442;2023-07-24T03:38:16;17.60;99.90
25923;DHT22;13725;51.170;4.442;2023-07-24T03:40:42;17.60;99.90
25923;DHT22;13725;51.170;4.442;2023-07-24T03:43:08;17.60;99.90
25923;DHT22;13725;51.170;4.442;2023-07-24T03:45:34;17.50;99.90
25923;DHT22;13725;51.170;4.442;2023-07-24T03:47:59;17.60;99.90
25923;DHT22;13725;51.170;4.442;2023-07-24T03:50:25;17.60;99.90
25923;DHT22;13725;51.170;4.442;2023-07-24T03:52:51;17.60;99.90
25923;DHT22;13725;51.170;4.442;2023-07-24T03:55:16;17.50;99.90
25923;DHT22;13725;51.170;4.442;2023-07-24T03:57:43;17.50;99.90
25923;DHT22;13725;51.170;4.442;2023-07-24T04:00:09;17.50;99.90
25923;DHT22;13725;51.170;4.442;2023-07-24T04:02:38;17.50;99.90
25923;DHT22;13725;51.170;4.442;2023-07-24T04:05:05;17.50;99.90
25923;DHT22;13725;51.170;4.442;2023-07-24T04:07:31;17.40;99.90
25923;DHT22;13725;51.170;4.442;2023-07-24T04:09:56;17.40;99.90
25923;DHT22;13725;51.170;4.442;2023-07-24T04:12:22;17.40;99.90
25923;DHT22;13725;51.170;4.442;2023-07-24T04:14:48;17.40;99.90
25923;DHT22;13725;51.170;4.442;2023-07-24T04:17:14;17.40;99.90
25923;DHT22;13725;51.170;4.442;2023-07-24T04:19:41;17.40;99.90
25923;DHT22;13725;51.170;4.442;2023-07-24T04:22:06;17.40;99.90
25923;DHT22;13725;51.170;4.442;2023-07-24T04:24:33;17.40;99.90
25923;DHT22;13725;51.170;4.442;2023-07-24T04:26:58;17.40;99.90
25923;DHT22;13725;51.170;4.442;2023-07-24T04:29:24;17.40;99.90
25923;DHT22;13725;51.170;4.442;2023-07-24T04:31:51;17.40;99.90
25923;DHT22;13725;51.170;4.442;2023-07-24T04:34:17;17.30;99.90
25923;DHT22;13725;51.170;4.442;2023-07-24T04:36:43;17.40;99.90
25923;DHT22;13725;51.170;4.442;2023-07-24T04:39:08;17.40;99.90
25923;DHT22;13725;51.170;4.442;2023-07-24T04:41:35;17.30;99.90
25923;DHT22;13725;51.170;4.442;2023-07-24T04:44:01;17.40;99.90
25923;DHT22;13725;51.170;4.442;2023-07-24T04:46:27;17.40;99.90
25923;DHT22;13725;51.170;4.442;2023-07-24T04:48:52;17.40;99.90
25923;DHT22;13725;51.170;4.442;2023-07-24T04:51:18;17.40;99.90
25923;DHT22;13725;51.170;4.442;2023-07-24T04:53:44;17.40;99.90
25923;DHT22;13725;51.170;4.442;2023-07-24T04:56:10;17.40;99.90
25923;DHT22;13725;51.170;4.442;2023-07-24T04:58:36;17.40;99.90
25923;DHT22;13725;51.170;4.442;2023-07-24T05:01:03;17.30;99.90
25923;DHT22;13725;51.170;4.442;2023-07-24T05:03:30;17.40;99.90
25923;DHT22;13725;51.170;4.442;2023-07-24T05:05:55;17.40;99.90
25923;DHT22;13725;51.170;4.442;2023-07-24T05:08:22;17.40;99.90
25923;DHT22;13725;51.170;4.442;2023-07-24T05:10:53;17.50;99.90
25923;DHT22;13725;51.170;4.442;2023-07-24T05:13:18;17.60;99.90
25923;DHT22;13725;51.170;4.442;2023-07-24T05:15:44;17.60;99.90
25923;DHT22;13725;51.170;4.442;2023-07-24T05:18:10;17.60;99.90
25923;DHT22;13725;51.170;4.442;2023-07-24T05:20:36;17.60;99.90
25923;DHT22;13725;51.170;4.442;2023-07-24T05:23:01;17.50;99.90
25923;DHT22;13725;51.170;4.442;2023-07-24T05:25:27;17.60;99.90
25923;DHT22;13725;51.170;4.442;2023-07-24T05:27:53;17.60;99.90
25923;DHT22;13725;51.170;4.442;2023-07-24T05:30:19;17.50;99.90
25923;DHT22;13725;51.170;4.442;2023-07-24T05:32:44;17.40;99.90
25923;DHT22;13725;51.170;4.442;2023-07-24T05:35:10;17.40;99.90
25923;DHT22;13725;51.170;4.442;2023-07-24T05:37:36;17.40;99.90
25923;DHT22;13725;51.170;4.442;2023-07-24T05:40:01;17.50;99.90
25923;DHT22;13725;51.170;4.442;2023-07-24T05:42:27;17.50;99.90
25923;DHT22;13725;51.170;4.442;2023-07-24T05:44:53;17.50;99.90
25923;DHT22;13725;51.170;4.442;2023-07-24T05:47:19;17.60;99.90
25923;DHT22;13725;51.170;4.442;2023-07-24T05:49:44;17.60;99.90
25923;DHT22;13725;51.170;4.442;2023-07-24T05:52:10;17.60;99.90
25923;DHT22;13725;51.170;4.442;2023-07-24T05:54:36;17.60;99.90
25923;DHT22;13725;51.170;4.442;2023-07-24T05:57:01;17.60;99.90
25923;DHT22;13725;51.170;4.442;2023-07-24T05:59:27;17.60;99.90
25923;DHT22;13725;51.170;4.442;2023-07-24T06:01:53;17.60;99.90
25923;DHT22;13725;51.170;4.442;2023-07-24T06:04:19;17.60;99.90
25923;DHT22;13725;51.170;4.442;2023-07-24T06:06:45;17.70;99.90
25923;DHT22;13725;51.170;4.442;2023-07-24T06:09:11;17.80;99.90
25923;DHT22;13725;51.170;4.442;2023-07-24T06:11:37;18.10;99.90
25923;DHT22;13725;51.170;4.442;2023-07-24T06:14:02;18.40;99.90
25923;DHT22;13725;51.170;4.442;2023-07-24T06:16:28;18.50;99.90
25923;DHT22;13725;51.170;4.442;2023-07-24T06:18:54;18.50;99.90
25923;DHT22;13725;51.170;4.442;2023-07-24T06:21:20;18.50;99.90
25923;DHT22;13725;51.170;4.442;2023-07-24T06:23:47;18.70;99.90
25923;DHT22;13725;51.170;4.442;2023-07-24T06:26:13;18.90;99.90
25923;DHT22;13725;51.170;4.442;2023-07-24T06:28:39;19.20;99.90
25923;DHT22;13725;51.170;4.442;2023-07-24T06:31:05;19.50;99.90
25923;DHT22;13725;51.170;4.442;2023-07-24T06:33:32;19.80;99.90
25923;DHT22;13725;51.170;4.442;2023-07-24T06:35:58;19.90;99.90
25923;DHT22;13725;51.170;4.442;2023-07-24T06:38:23;20.10;99.90
25923;DHT22;13725;51.170;4.442;2023-07-24T06:40:49;20.30;99.90
25923;DHT22;13725;51.170;4.442;2023-07-24T06:43:15;20.50;99.90
25923;DHT22;13725;51.170;4.442;2023-07-24T06:45:41;20.90;99.90
25923;DHT22;13725;51.170;4.442;2023-07-24T06:48:06;21.20;99.90
25923;DHT22;13725;51.170;4.442;2023-07-24T06:50:32;21.10;99.90
25923;DHT22;13725;51.170;4.442;2023-07-24T06:52:58;20.90;99.90
25923;DHT22;13725;51.170;4.442;2023-07-24T06:55:24;20.80;99.90
25923;DHT22;13725;51.170;4.442;2023-07-24T06:57:50;20.90;99.90
25923;DHT22;13725;51.170;4.442;2023-07-24T07:00:15;21.00;99.90
25923;DHT22;13725;51.170;4.442;2023-07-24T07:02:41;21.20;99.90
25923;DHT22;13725;51.170;4.442;2023-07-24T07:05:07;21.60;99.90
25923;DHT22;13725;51.170;4.442;2023-07-24T07:07:33;21.70;99.90
25923;DHT22;13725;51.170;4.442;2023-07-24T07:09:58;21.60;99.90
25923;DHT22;13725;51.170;4.442;2023-07-24T07:12:24;21.40;99.90
25923;DHT22;13725;51.170;4.442;2023-07-24T07:14:50;21.00;99.90
25923;DHT22;13725;51.170;4.442;2023-07-24T07:17:15;20.70;99.90
25923;DHT22;13725;51.170;4.442;2023-07-24T07:19:41;20.50;99.90
25923;DHT22;13725;51.170;4.442;2023-07-24T07:22:07;20.40;99.90
25923;DHT22;13725;51.170;4.442;2023-07-24T07:24:33;20.30;99.90
25923;DHT22;13725;51.170;4.442;2023-07-24T07:26:58;20.10;99.90
25923;DHT22;13725;51.170;4.442;2023-07-24T07:29:24;20.10;99.90
25923;DHT22;13725;51.170;4.442;2023-07-24T07:31:50;20.00;99.90
25923;DHT22;13725;51.170;4.442;2023-07-24T07:34:15;20.00;99.90
25923;DHT22;13725;51.170;4.442;2023-07-24T07:36:41;19.90;99.90
25923;DHT22;13725;51.170;4.442;2023-07-24T07:39:07;19.80;99.90
25923;DHT22;13725;51.170;4.442;2023-07-24T07:41:34;19.70;99.90
25923;DHT22;13725;51.170;4.442;2023-07-24T07:44:00;19.70;99.90
25923;DHT22;13725;51.170;4.442;2023-07-24T07:46:26;19.80;99.90
25923;DHT22;13725;51.170;4.442;2023-07-24T07:48:52;19.90;99.90
25923;DHT22;13725;51.170;4.442;2023-07-24T07:51:17;19.90;99.90
25923;DHT22;13725;51.170;4.442;2023-07-24T07:53:43;20.00;99.90
25923;DHT22;13725;51.170;4.442;2023-07-24T07:56:09;20.10;99.90
25923;DHT22;13725;51.170;4.442;2023-07-24T07:58:34;20.20;99.90
25923;DHT22;13725;51.170;4.442;2023-07-24T08:01:07;20.90;99.90
25923;DHT22;13725;51.170;4.442;2023-07-24T08:03:33;22.00;99.90
25923;DHT22;13725;51.170;4.442;2023-07-24T08:06:00;23.70;99.90
25923;DHT22;13725;51.170;4.442;2023-07-24T08:08:26;24.50;99.90
25923;DHT22;13725;51.170;4.442;2023-07-24T08:10:52;24.50;99.90
25923;DHT22;13725;51.170;4.442;2023-07-24T08:13:17;25.60;99.90
25923;DHT22;13725;51.170;4.442;2023-07-24T08:15:43;27.30;99.90
25923;DHT22;13725;51.170;4.442;2023-07-24T08:18:09;27.70;99.90
25923;DHT22;13725;51.170;4.442;2023-07-24T08:20:38;27.40;99.90
25923;DHT22;13725;51.170;4.442;2023-07-24T08:23:05;27.20;99.90
25923;DHT22;13725;51.170;4.442;2023-07-24T08:25:31;27.00;99.90
25923;DHT22;13725;51.170;4.442;2023-07-24T08:27:57;26.60;99.90
25923;DHT22;13725;51.170;4.442;2023-07-24T08:30:23;26.00;99.90
25923;DHT22;13725;51.170;4.442;2023-07-24T08:32:48;25.60;99.90
25923;DHT22;13725;51.170;4.442;2023-07-24T08:35:17;25.30;99.90
25923;DHT22;13725;51.170;4.442;2023-07-24T08:37:43;25.30;99.90
25923;DHT22;13725;51.170;4.442;2023-07-24T08:40:10;25.30;99.90
25923;DHT22;13725;51.170;4.442;2023-07-24T08:42:38;25.10;99.90
25923;DHT22;13725;51.170;4.442;2023-07-24T08:45:05;25.50;99.90
25923;DHT22;13725;51.170;4.442;2023-07-24T08:47:34;25.40;99.90
25923;DHT22;13725;51.170;4.442;2023-07-24T08:50:02;25.30;99.90
25923;DHT22;13725;51.170;4.442;2023-07-24T08:52:28;25.00;99.90
25923;DHT22;13725;51.170;4.442;2023-07-24T08:54:55;24.80;99.90
25923;DHT22;13725;51.170;4.442;2023-07-24T08:57:22;24.80;99.90
25923;DHT22;13725;51.170;4.442;2023-07-24T08:59:48;24.90;99.90
25923;DHT22;13725;51.170;4.442;2023-07-24T09:02:13;24.50;99.90
25923;DHT22;13725;51.170;4.442;2023-07-24T09:04:39;24.40;99.90
25923;DHT22;13725;51.170;4.442;2023-07-24T09:07:06;24.30;99.90
25923;DHT22;13725;51.170;4.442;2023-07-24T09:09:32;24.00;99.90
25923;DHT22;13725;51.170;4.442;2023-07-24T09:11:58;23.80;99.90
25923;DHT22;13725;51.170;4.442;2023-07-24T09:14:27;23.80;99.90
25923;DHT22;13725;51.170;4.442;2023-07-24T09:17:03;23.90;99.90
25923;DHT22;13725;51.170;4.442;2023-07-24T09:19:29;24.50;99.90
25923;DHT22;13725;51.170;4.442;2023-07-24T09:21:55;25.20;99.90
25923;DHT22;13725;51.170;4.442;2023-07-24T09:24:21;25.80;99.90
25923;DHT22;13725;51.170;4.442;2023-07-24T09:26:53;26.10;99.90
25923;DHT22;13725;51.170;4.442;2023-07-24T09:29:19;26.00;99.90
25923;DHT22;13725;51.170;4.442;2023-07-24T09:31:45;26.20;99.90
25923;DHT22;13725;51.170;4.442;2023-07-24T09:34:16;26.30;99.90
25923;DHT22;13725;51.170;4.442;2023-07-24T09:36:42;26.60;99.90
25923;DHT22;13725;51.170;4.442;2023-07-24T09:39:09;26.90;99.90
25923;DHT22;13725;51.170;4.442;2023-07-24T09:41:38;26.90;99.90
25923;DHT22;13725;51.170;4.442;2023-07-24T09:44:04;26.90;99.90
25923;DHT22;13725;51.170;4.442;2023-07-24T09:46:30;26.70;99.90
25923;DHT22;13725;51.170;4.442;2023-07-24T09:48:57;26.30;99.90
25923;DHT22;13725;51.170;4.442;2023-07-24T09:51:23;26.00;99.90
25923;DHT22;13725;51.170;4.442;2023-07-24T09:53:53;25.90;99.90
25923;DHT22;13725;51.170;4.442;2023-07-24T09:56:21;26.20;99.90
25923;DHT22;13725;51.170;4.442;2023-07-24T09:58:49;26.90;99.90
25923;DHT22;13725;51.170;4.442;2023-07-24T10:01:20;28.70;99.90
25923;DHT22;13725;51.170;4.442;2023-07-24T10:03:49;31.90;99.90
25923;DHT22;13725;51.170;4.442;2023-07-24T10:06:16;34.60;99.90
25923;DHT22;13725;51.170;4.442;2023-07-24T10:08:43;36.70;99.90
25923;DHT22;13725;51.170;4.442;2023-07-24T10:11:13;36.50;99.90
25923;DHT22;13725;51.170;4.442;2023-07-24T10:13:40;34.90;99.90
25923;DHT22;13725;51.170;4.442;2023-07-24T10:16:07;33.40;99.90
25923;DHT22;13725;51.170;4.442;2023-07-24T10:18:35;32.20;99.90
25923;DHT22;13725;51.170;4.442;2023-07-24T10:21:06;31.00;99.90
25923;DHT22;13725;51.170;4.442;2023-07-24T10:23:36;29.90;99.90
25923;DHT22;13725;51.170;4.442;2023-07-24T10:26:03;28.90;99.90
25923;DHT22;13725;51.170;4.442;2023-07-24T10:28:35;28.00;99.90
25923;DHT22;13725;51.170;4.442;2023-07-24T10:31:05;27.20;99.90
25923;DHT22;13725;51.170;4.442;2023-07-24T10:33:36;26.50;99.90
25923;DHT22;13725;51.170;4.442;2023-07-24T10:36:08;26.10;99.90
25923;DHT22;13725;51.170;4.442;2023-07-24T10:38:37;25.70;99.90
25923;DHT22;13725;51.170;4.442;2023-07-24T10:41:05;25.70;99.90
25923;DHT22;13725;51.170;4.442;2023-07-24T10:43:41;25.80;99.90
25923;DHT22;13725;51.170;4.442;2023-07-24T10:46:09;25.60;99.90
25923;DHT22;13725;51.170;4.442;2023-07-24T10:48:35;25.50;99.90
25923;DHT22;13725;51.170;4.442;2023-07-24T10:51:07;25.10;99.90
25923;DHT22;13725;51.170;4.442;2023-07-24T10:53:35;24.80;99.90
25923;DHT22;13725;51.170;4.442;2023-07-24T10:56:02;24.40;99.90
25923;DHT22;13725;51.170;4.442;2023-07-24T10:58:27;23.90;99.90
25923;DHT22;13725;51.170;4.442;2023-07-24T11:00:53;23.70;99.90
25923;DHT22;13725;51.170;4.442;2023-07-24T11:03:19;23.50;99.90
25923;DHT22;13725;51.170;4.442;2023-07-24T11:05:46;23.30;99.90
25923;DHT22;13725;51.170;4.442;2023-07-24T11:08:14;23.50;99.90
25923;DHT22;13725;51.170;4.442;2023-07-24T11:13:14;26.20;99.90
25923;DHT22;13725;51.170;4.442;2023-07-24T11:15:40;27.20;99.90
25923;DHT22;13725;51.170;4.442;2023-07-24T11:18:06;27.60;99.90
25923;DHT22;13725;51.170;4.442;2023-07-24T11:23:10;26.80;99.90
25923;DHT22;13725;51.170;4.442;2023-07-24T11:25:37;26.60;99.90
25923;DHT22;13725;51.170;4.442;2023-07-24T11:28:10;26.70;99.90
25923;DHT22;13725;51.170;4.442;2023-07-24T11:30:36;27.10;99.90
25923;DHT22;13725;51.170;4.442;2023-07-24T11:33:06;27.30;99.90
25923;DHT22;13725;51.170;4.442;2023-07-24T11:35:33;27.80;99.90
25923;DHT22;13725;51.170;4.442;2023-07-24T11:38:01;28.20;99.90
25923;DHT22;13725;51.170;4.442;2023-07-24T11:40:35;28.30;99.90
25923;DHT22;13725;51.170;4.442;2023-07-24T11:43:01;28.10;99.90
25923;DHT22;13725;51.170;4.442;2023-07-24T11:45:27;28.40;99.90
25923;DHT22;13725;51.170;4.442;2023-07-24T11:47:53;29.60;99.90
25923;DHT22;13725;51.170;4.442;2023-07-24T11:50:20;31.30;99.90
25923;DHT22;13725;51.170;4.442;2023-07-24T11:52:49;32.90;99.90
25923;DHT22;13725;51.170;4.442;2023-07-24T11:55:18;33.20;99.90
25923;DHT22;13725;51.170;4.442;2023-07-24T11:57:56;33.20;99.90
25923;DHT22;13725;51.170;4.442;2023-07-24T12:00:22;33.00;99.90
25923;DHT22;13725;51.170;4.442;2023-07-24T12:02:49;32.90;99.90
25923;DHT22;13725;51.170;4.442;2023-07-24T12:05:15;32.30;99.90
25923;DHT22;13725;51.170;4.442;2023-07-24T12:07:42;33.00;99.90
25923;DHT22;13725;51.170;4.442;2023-07-24T12:10:09;33.20;99.90
25923;DHT22;13725;51.170;4.442;2023-07-24T12:12:46;32.50;99.90
25923;DHT22;13725;51.170;4.442;2023-07-24T12:15:12;31.70;99.90
25923;DHT22;13725;51.170;4.442;2023-07-24T12:17:39;31.40;99.90
25923;DHT22;13725;51.170;4.442;2023-07-24T12:20:06;31.20;99.90
25923;DHT22;13725;51.170;4.442;2023-07-24T12:22:37;30.50;99.90
25923;DHT22;13725;51.170;4.442;2023-07-24T12:25:03;29.70;99.90
25923;DHT22;13725;51.170;4.442;2023-07-24T12:27:29;29.20;99.90
25923;DHT22;13725;51.170;4.442;2023-07-24T12:29:56;28.60;99.90
25923;DHT22;13725;51.170;4.442;2023-07-24T12:32:22;27.90;99.90
25923;DHT22;13725;51.170;4.442;2023-07-24T12:34:50;27.10;99.90
25923;DHT22;13725;51.170;4.442;2023-07-24T12:37:17;26.10;99.90
25923;DHT22;13725;51.170;4.442;2023-07-24T12:39:45;25.30;99.90
25923;DHT22;13725;51.170;4.442;2023-07-24T12:42:11;25.20;99.90
25923;DHT22;13725;51.170;4.442;2023-07-24T12:44:37;25.30;99.90
25923;DHT22;13725;51.170;4.442;2023-07-24T12:47:04;25.30;99.90
25923;DHT22;13725;51.170;4.442;2023-07-24T12:49:30;25.50;99.90
25923;DHT22;13725;51.170;4.442;2023-07-24T12:51:55;25.70;99.90
25923;DHT22;13725;51.170;4.442;2023-07-24T12:54:21;25.90;99.90
25923;DHT22;13725;51.170;4.442;2023-07-24T12:56:48;25.90;99.90
25923;DHT22;13725;51.170;4.442;2023-07-24T12:59:14;26.40;99.90
25923;DHT22;13725;51.170;4.442;2023-07-24T13:01:40;28.00;99.90
25923;DHT22;13725;51.170;4.442;2023-07-24T13:04:07;29.70;99.90
25923;DHT22;13725;51.170;4.442;2023-07-24T13:06:33;31.30;99.90
25923;DHT22;13725;51.170;4.442;2023-07-24T13:09:00;32.10;99.90
25923;DHT22;13725;51.170;4.442;2023-07-24T13:11:25;32.20;99.90
25923;DHT22;13725;51.170;4.442;2023-07-24T13:13:54;33.30;99.90
25923;DHT22;13725;51.170;4.442;2023-07-24T13:16:19;32.80;99.90
25923;DHT22;13725;51.170;4.442;2023-07-24T13:18:45;31.90;99.90
25923;DHT22;13725;51.170;4.442;2023-07-24T13:21:11;31.00;99.90
25923;DHT22;13725;51.170;4.442;2023-07-24T13:23:38;29.80;99.90
25923;DHT22;13725;51.170;4.442;2023-07-24T13:26:04;28.60;99.90
25923;DHT22;13725;51.170;4.442;2023-07-24T13:28:29;27.50;99.90
25923;DHT22;13725;51.170;4.442;2023-07-24T13:30:55;26.60;99.90
25923;DHT22;13725;51.170;4.442;2023-07-24T13:33:22;25.80;99.90
25923;DHT22;13725;51.170;4.442;2023-07-24T13:35:48;25.10;99.90
25923;DHT22;13725;51.170;4.442;2023-07-24T13:38:15;24.60;99.90
25923;DHT22;13725;51.170;4.442;2023-07-24T13:40:41;24.20;99.90
25923;DHT22;13725;51.170;4.442;2023-07-24T13:43:07;23.80;99.90
25923;DHT22;13725;51.170;4.442;2023-07-24T13:45:33;23.50;99.90
25923;DHT22;13725;51.170;4.442;2023-07-24T13:47:58;23.20;99.90
25923;DHT22;13725;51.170;4.442;2023-07-24T13:50:24;22.80;99.90
25923;DHT22;13725;51.170;4.442;2023-07-24T13:52:50;22.60;99.90
25923;DHT22;13725;51.170;4.442;2023-07-24T13:55:17;22.30;99.90
25923;DHT22;13725;51.170;4.442;2023-07-24T13:57:42;22.10;99.90
25923;DHT22;13725;51.170;4.442;2023-07-24T14:00:08;22.00;99.90
25923;DHT22;13725;51.170;4.442;2023-07-24T14:02:41;22.00;99.90
25923;DHT22;13725;51.170;4.442;2023-07-24T14:05:07;22.00;99.90
25923;DHT22;13725;51.170;4.442;2023-07-24T14:07:34;21.90;99.90
25923;DHT22;13725;51.170;4.442;2023-07-24T14:10:00;21.90;99.90
25923;DHT22;13725;51.170;4.442;2023-07-24T14:12:25;21.70;99.90
25923;DHT22;13725;51.170;4.442;2023-07-24T14:14:51;21.80;99.90
25923;DHT22;13725;51.170;4.442;2023-07-24T14:17:17;21.70;99.90
25923;DHT22;13725;51.170;4.442;2023-07-24T14:19:45;21.70;99.90
25923;DHT22;13725;51.170;4.442;2023-07-24T14:22:10;21.70;99.90
25923;DHT22;13725;51.170;4.442;2023-07-24T14:24:36;21.50;99.90
25923;DHT22;13725;51.170;4.442;2023-07-24T14:27:02;21.50;99.90
25923;DHT22;13725;51.170;4.442;2023-07-24T14:29:27;21.50;99.90
25923;DHT22;13725;51.170;4.442;2023-07-24T14:31:53;21.40;99.90
25923;DHT22;13725;51.170;4.442;2023-07-24T14:34:19;21.40;99.90
25923;DHT22;13725;51.170;4.442;2023-07-24T14:36:44;21.40;99.90
25923;DHT22;13725;51.170;4.442;2023-07-24T14:39:10;21.50;99.90
25923;DHT22;13725;51.170;4.442;2023-07-24T14:41:36;21.70;99.90
25923;DHT22;13725;51.170;4.442;2023-07-24T14:44:01;21.90;99.90
25923;DHT22;13725;51.170;4.442;2023-07-24T14:46:27;22.00;99.90
25923;DHT22;13725;51.170;4.442;2023-07-24T14:48:54;22.10;99.90
25923;DHT22;13725;51.170;4.442;2023-07-24T14:51:19;22.20;99.90
25923;DHT22;13725;51.170;4.442;2023-07-24T14:53:48;22.50;99.90
25923;DHT22;13725;51.170;4.442;2023-07-24T14:56:15;22.70;99.90
25923;DHT22;13725;51.170;4.442;2023-07-24T14:58:42;22.90;99.90
25923;DHT22;13725;51.170;4.442;2023-07-24T15:01:11;22.90;99.90
25923;DHT22;13725;51.170;4.442;2023-07-24T15:03:37;22.90;99.90
25923;DHT22;13725;51.170;4.442;2023-07-24T15:06:03;23.00;99.90
25923;DHT22;13725;51.170;4.442;2023-07-24T15:08:32;23.30;99.90
25923;DHT22;13725;51.170;4.442;2023-07-24T15:10:58;23.60;99.90
25923;DHT22;13725;51.170;4.442;2023-07-24T15:13:24;23.90;99.90
25923;DHT22;13725;51.170;4.442;2023-07-24T15:15:49;24.20;99.90
25923;DHT22;13725;51.170;4.442;2023-07-24T15:18:15;24.40;99.90
25923;DHT22;13725;51.170;4.442;2023-07-24T15:20:41;24.30;99.90
25923;DHT22;13725;51.170;4.442;2023-07-24T15:23:07;24.10;99.90
25923;DHT22;13725;51.170;4.442;2023-07-24T15:25:33;23.80;99.90
25923;DHT22;13725;51.170;4.442;2023-07-24T15:27:59;23.50;99.90
25923;DHT22;13725;51.170;4.442;2023-07-24T15:30:25;23.00;99.90